createdAt,value
2019-05-10T12:23:13.267Z,63.40
2019-05-10T12:25:57.332Z,68.10
2019-05-10T12:28:10.721Z,71.70
2019-05-10T12:30:41.027Z,64.20
2019-05-10T12:33:23.857Z,67.90
2019-05-10T12:35:47.225Z,68.80
2019-05-10T12:38:15.321Z,61.60
2019-05-10T12:40:45.972Z,66.20
2019-05-10T12:43:16.657Z,65.30
2019-05-10T12:45:47.064Z,59.10
2019-05-10T12:48:17.343Z,57.30
2019-05-10T12:50:47.765Z,62.20
2019-05-10T12:53:18.599Z,61.70
2019-05-10T12:55:49.087Z,64.30
2019-05-10T12:58:19.792Z,64.80
2019-05-10T13:00:52.366Z,68.40
2019-05-10T13:03:25.122Z,67.30
2019-05-10T13:05:54.019Z,67.60
2019-05-10T13:08:24.232Z,63.30
2019-05-10T13:10:54.503Z,63.80
2019-05-10T13:13:29.795Z,67.30
2019-05-10T13:15:56.817Z,68.50
2019-05-10T13:18:49.181Z,63.20
2019-05-10T13:20:58.936Z,62.40
2019-05-10T13:23:29.283Z,60.90
2019-05-10T13:25:59.677Z,66.70
2019-05-10T13:28:29.961Z,63.20
2019-05-10T13:31:05.578Z,64.50
2019-05-10T13:33:40.906Z,61.50
2019-05-10T13:36:04.033Z,66.50
2019-05-10T13:38:36.942Z,65.20
2019-05-10T13:41:06.400Z,63.30
2019-05-10T13:43:36.825Z,68.00
2019-05-10T13:46:07.289Z,67.20
2019-05-10T13:48:37.581Z,61.20
2019-05-10T13:51:07.952Z,64.40
2019-05-10T13:53:38.145Z,67.90
2019-05-10T13:56:08.478Z,66.90
2019-05-10T13:58:38.765Z,62.50
2019-05-10T14:01:13.029Z,66.10
2019-05-10T14:03:44.293Z,65.00
2019-05-10T14:06:13.058Z,63.40
2019-05-10T14:08:48.207Z,68.90
2019-05-10T14:11:15.459Z,61.70
2019-05-10T14:13:45.678Z,65.10
2019-05-10T14:16:19.757Z,62.70
2019-05-10T14:18:48.108Z,65.30
2019-05-10T14:21:18.476Z,56.80
2019-05-10T14:23:48.866Z,66.20
2019-05-10T14:26:19.157Z,58.90
2019-05-10T14:28:53.058Z,57.80
2019-05-10T14:31:21.516Z,68.70
2019-05-10T14:34:14.129Z,52.80
2019-05-10T14:36:23.750Z,63.30
2019-05-10T14:38:56.140Z,57.40
2019-05-10T14:41:25.850Z,65.00
2019-05-10T14:43:56.269Z,52.60
2019-05-10T14:46:26.578Z,61.40
2019-05-10T14:48:56.911Z,59.80
2019-05-10T14:51:44.171Z,59.10
2019-05-10T14:54:06.450Z,63.10
2019-05-10T14:56:31.246Z,63.80
2019-05-10T14:59:01.477Z,58.10
2019-05-10T15:01:36.915Z,62.20
2019-05-10T15:04:03.892Z,58.20
2019-05-10T15:06:36.803Z,47.10
2019-05-10T15:09:20.412Z,52.40
2019-05-10T15:11:40.415Z,53.30
2019-05-10T15:14:10.732Z,55.60
2019-05-10T15:16:40.980Z,57.10
2019-05-10T15:19:11.178Z,54.40
2019-05-10T15:21:41.352Z,57.70
2019-05-10T15:24:11.676Z,57.10
2019-05-10T15:26:44.024Z,58.80
2019-05-10T15:29:15.040Z,54.60
2019-05-10T15:31:45.690Z,57.70
2019-05-10T15:34:16.016Z,55.60
2019-05-10T15:36:46.330Z,54.20
2019-05-10T15:39:16.604Z,56.30
2019-05-10T15:41:46.879Z,54.30
2019-05-10T15:44:17.084Z,51.20
2019-05-10T15:46:47.318Z,53.50
2019-05-10T15:49:22.654Z,57.60
2019-05-10T15:51:56.816Z,56.80
2019-05-10T15:54:21.450Z,59.00
2019-05-10T15:56:55.245Z,55.40
2019-05-10T15:59:24.172Z,57.40
2019-05-10T16:01:54.631Z,58.80
2019-05-10T16:04:24.992Z,59.60
2019-05-10T16:06:55.324Z,57.30
2019-05-10T16:09:25.530Z,58.90
2019-05-10T16:12:01.477Z,57.20
2019-05-10T16:14:32.968Z,60.80
2019-05-10T16:16:59.752Z,59.60
2019-05-10T16:19:29.975Z,61.50
2019-05-10T16:22:00.375Z,62.30
2019-05-10T16:24:30.694Z,61.50
2019-05-10T16:27:01.893Z,62.00
2019-05-10T16:29:33.781Z,61.70
2019-05-10T16:32:04.328Z,57.00
2019-05-10T16:34:34.739Z,59.40
2019-05-10T16:37:04.920Z,55.10
2019-05-10T16:39:35.264Z,55.60
2019-05-10T16:42:05.632Z,58.10
2019-05-10T16:44:36.135Z,59.20
2019-05-10T16:47:06.379Z,60.30
2019-05-10T16:49:40.286Z,58.60
2019-05-10T16:52:10.523Z,58.30
2019-05-10T16:54:40.909Z,60.40
2019-05-10T16:57:11.233Z,58.80
2019-05-10T16:59:41.616Z,58.00
2019-05-10T17:02:12.053Z,59.00
2019-05-10T17:04:42.593Z,59.60
2019-05-10T17:07:19.294Z,59.80
2019-05-10T17:09:49.400Z,59.50
2019-05-10T17:12:16.979Z,61.30
2019-05-10T17:14:50.639Z,60.90
2019-05-10T17:17:19.313Z,60.60
2019-05-10T17:19:49.497Z,61.30
2019-05-10T17:22:19.718Z,60.00
2019-05-10T17:24:49.930Z,59.60
2019-05-10T17:27:20.205Z,60.10
2019-05-10T17:29:51.360Z,62.10
2019-05-10T17:32:24.567Z,62.70
2019-05-10T17:34:53.614Z,62.10
2019-05-10T17:37:23.887Z,62.30
2019-05-10T17:39:54.151Z,63.10
2019-05-10T17:42:24.397Z,63.50
2019-05-10T17:44:55.307Z,62.80
2019-05-10T17:47:27.212Z,63.50
2019-05-10T17:49:58.664Z,63.70
2019-05-10T17:52:28.927Z,63.00
2019-05-10T17:54:59.203Z,64.20
2019-05-10T17:57:29.479Z,64.30
2019-05-10T17:59:59.678Z,64.80
2019-05-10T18:02:29.922Z,65.40
2019-05-10T18:05:05.981Z,65.30
2019-05-10T18:07:32.166Z,65.10
2019-05-10T18:10:02.440Z,65.10
2019-05-10T18:12:32.793Z,65.40
2019-05-10T18:15:04.979Z,65.40
2019-05-10T18:17:35.118Z,65.40
2019-05-10T18:20:05.652Z,65.50
2019-05-10T18:22:42.827Z,65.60
2019-05-10T18:25:19.345Z,65.70
2019-05-10T18:27:40.063Z,66.00
2019-05-10T18:30:10.734Z,66.30
2019-05-10T18:32:41.211Z,66.40
2019-05-10T18:35:14.714Z,66.70
2019-05-10T18:37:44.285Z,67.00
2019-05-10T18:40:14.882Z,67.50
2019-05-10T18:42:45.189Z,67.00
2019-05-10T18:45:15.638Z,66.80
2019-05-10T18:47:46.211Z,66.90
2019-05-10T18:50:16.391Z,67.20
2019-05-10T18:52:46.656Z,67.20
2019-05-10T18:55:16.953Z,67.30
2019-05-10T18:57:50.445Z,67.10
2019-05-10T19:00:23.094Z,67.60
2019-05-10T19:02:55.246Z,66.90
2019-05-10T19:05:24.933Z,66.70
2019-05-10T19:08:04.600Z,66.80
2019-05-10T19:10:27.693Z,67.30
2019-05-10T19:13:01.363Z,67.50
2019-05-10T19:15:29.906Z,67.30
2019-05-10T19:18:00.242Z,67.80
2019-05-10T19:20:30.371Z,67.90
2019-05-10T19:23:00.688Z,68.30
2019-05-10T19:25:30.910Z,68.90
2019-05-10T19:28:01.211Z,68.50
2019-05-10T19:30:31.454Z,68.30
2019-05-10T19:33:01.666Z,71.00
2019-05-10T19:35:35.658Z,70.50
2019-05-10T19:38:03.969Z,69.80
2019-05-10T19:40:34.281Z,72.60
2019-05-10T19:43:04.543Z,71.70
2019-05-10T19:45:34.773Z,70.20
2019-05-10T19:48:06.014Z,70.50
2019-05-10T19:50:36.526Z,69.40
2019-05-10T19:53:06.730Z,70.70
2019-05-10T19:55:36.943Z,70.20
2019-05-10T19:58:07.154Z,69.90
2019-05-10T20:00:37.423Z,71.10
2019-05-10T20:03:07.784Z,70.20
2019-05-10T20:05:38.109Z,72.00
2019-05-10T20:08:08.489Z,70.20
2019-05-10T20:10:38.687Z,70.50
2019-05-10T20:13:09.050Z,72.60
2019-05-10T20:15:39.270Z,71.70
2019-05-10T20:18:09.705Z,70.90
2019-05-10T20:20:40.279Z,72.60
2019-05-10T20:23:10.602Z,71.20
2019-05-10T20:25:40.800Z,71.50
2019-05-10T20:28:11.064Z,72.10
2019-05-10T20:30:41.394Z,71.40
2019-05-10T20:33:11.773Z,72.20
2019-05-10T20:35:42.144Z,72.40
2019-05-10T20:38:12.420Z,72.90
2019-05-10T20:40:42.606Z,71.60
2019-05-10T20:43:12.825Z,72.90
2019-05-10T20:45:43.269Z,72.20
2019-05-10T20:48:13.492Z,72.00
2019-05-10T20:50:43.958Z,75.00
2019-05-10T20:53:14.306Z,73.70
2019-05-10T20:55:44.608Z,72.00
2019-05-10T20:58:14.923Z,72.90
2019-05-10T21:00:45.284Z,72.50
2019-05-10T21:03:15.504Z,72.10
2019-05-10T21:05:45.932Z,73.70
2019-05-10T21:08:17.394Z,72.80
2019-05-10T21:10:47.984Z,74.10
2019-05-10T21:13:18.263Z,74.00
2019-05-10T21:15:48.475Z,75.30
2019-05-10T21:18:18.754Z,74.20
2019-05-10T21:20:49.004Z,73.80
2019-05-10T21:23:19.274Z,72.80
2019-05-10T21:25:49.682Z,74.60
2019-05-10T21:28:19.949Z,75.00
2019-05-10T21:30:53.276Z,73.70
2019-05-10T21:33:22.128Z,75.20
2019-05-10T21:35:52.337Z,74.60
2019-05-10T21:38:32.712Z,74.40
2019-05-10T21:40:54.691Z,76.20
2019-05-10T21:43:25.095Z,76.10
2019-05-10T21:45:55.323Z,75.30
2019-05-10T21:48:25.665Z,77.10
2019-05-10T21:50:56.047Z,75.30
2019-05-10T21:53:26.179Z,75.90
2019-05-10T21:55:56.493Z,75.90
2019-05-10T21:58:26.710Z,78.10
2019-05-10T22:00:57.013Z,77.10
2019-05-10T22:03:27.214Z,75.50
2019-05-10T22:05:57.570Z,76.00
2019-05-10T22:08:27.919Z,75.60
2019-05-10T22:10:58.302Z,76.30
2019-05-10T22:13:28.460Z,75.20
2019-05-10T22:15:58.786Z,76.10
2019-05-10T22:18:29.229Z,75.40
2019-05-10T22:20:59.599Z,77.40
2019-05-10T22:23:29.838Z,75.70
2019-05-10T22:26:00.159Z,75.70
2019-05-10T22:28:30.518Z,75.50
2019-05-10T22:31:00.879Z,76.10
2019-05-10T22:33:31.249Z,76.70
2019-05-10T22:36:01.534Z,78.00
2019-05-10T22:38:31.805Z,77.00
2019-05-10T22:41:02.009Z,76.40
2019-05-10T22:43:32.357Z,76.50
2019-05-10T22:46:02.716Z,78.30
2019-05-10T22:48:32.966Z,77.30
2019-05-10T22:51:03.270Z,77.80
2019-05-10T22:53:33.600Z,77.50
2019-05-10T22:56:03.977Z,78.80
2019-05-10T22:58:34.293Z,78.20
2019-05-10T23:01:04.504Z,77.90
2019-05-10T23:03:34.722Z,77.30
2019-05-10T23:06:05.013Z,77.70
2019-05-10T23:08:35.315Z,77.70
2019-05-10T23:11:05.718Z,78.20
2019-05-10T23:13:36.095Z,78.50
2019-05-10T23:16:06.277Z,77.50
2019-05-10T23:18:36.522Z,77.20
2019-05-10T23:21:06.782Z,79.00
2019-05-10T23:23:36.991Z,78.40
2019-05-10T23:26:07.296Z,77.70
2019-05-10T23:28:37.651Z,78.40
2019-05-10T23:31:07.859Z,78.20
2019-05-10T23:33:38.150Z,80.00
2019-05-10T23:36:08.346Z,79.80
2019-05-10T23:38:38.688Z,79.10
2019-05-10T23:41:08.991Z,79.50
2019-05-10T23:43:39.197Z,79.70
2019-05-10T23:46:09.462Z,79.00
2019-05-10T23:48:39.850Z,79.00
2019-05-10T23:51:10.031Z,78.90
2019-05-10T23:53:40.380Z,78.30
2019-05-10T23:56:10.702Z,79.70
2019-05-10T23:58:40.872Z,78.00
